createdAt,value
2019-05-21T00:00:06.617Z,12.48
2019-05-21T00:01:06.625Z,12.49
2019-05-21T00:02:06.620Z,12.49
2019-05-21T00:03:06.609Z,12.48
2019-05-21T00:04:06.615Z,12.47
2019-05-21T00:05:06.613Z,12.48
2019-05-21T00:06:06.621Z,12.48
2019-05-21T00:07:06.610Z,12.49
2019-05-21T00:08:06.609Z,12.49
2019-05-21T00:09:06.610Z,12.49
2019-05-21T00:10:06.612Z,12.48
2019-05-21T00:11:06.616Z,12.48
2019-05-21T00:12:06.608Z,12.47
2019-05-21T00:13:06.610Z,12.47
2019-05-21T00:14:06.607Z,12.48
2019-05-21T00:15:06.606Z,12.47
2019-05-21T00:16:06.611Z,12.48
2019-05-21T00:17:06.604Z,12.48
2019-05-21T00:18:06.606Z,12.48
2019-05-21T00:19:06.614Z,12.49
2019-05-21T00:20:06.604Z,12.49
2019-05-21T00:21:06.610Z,12.47
2019-05-21T00:22:06.601Z,12.46
2019-05-21T00:23:06.603Z,12.44
2019-05-21T00:24:06.601Z,12.44
2019-05-21T00:25:06.602Z,12.46
2019-05-21T00:26:06.607Z,12.45
2019-05-21T00:27:06.601Z,12.44
2019-05-21T00:28:06.597Z,12.47
2019-05-21T00:29:06.597Z,12.47
2019-05-21T00:30:06.599Z,12.46
2019-05-21T00:31:06.621Z,12.46
2019-05-21T00:32:06.600Z,12.46
2019-05-21T00:33:06.600Z,12.46
2019-05-21T00:34:06.596Z,12.46
2019-05-21T00:35:06.594Z,12.47
2019-05-21T00:36:06.601Z,12.47
2019-05-21T00:37:06.606Z,12.46
2019-05-21T00:38:06.593Z,12.45
2019-05-21T00:39:06.597Z,12.45
2019-05-21T00:40:06.595Z,12.46
2019-05-21T00:41:06.606Z,12.45
2019-05-21T00:42:06.589Z,12.45
2019-05-21T00:43:06.591Z,12.44
2019-05-21T00:44:06.587Z,12.44
2019-05-21T00:45:06.593Z,12.44
2019-05-21T00:46:06.606Z,12.42
2019-05-21T00:47:06.588Z,12.42
2019-05-21T00:48:06.590Z,12.43
2019-05-21T00:49:06.599Z,12.43
2019-05-21T00:50:06.589Z,12.43
2019-05-21T00:51:06.584Z,12.43
2019-05-21T00:52:08.806Z,12.43
2019-05-21T00:53:06.585Z,12.43
2019-05-21T00:54:06.594Z,12.44
2019-05-21T00:55:06.582Z,12.43
2019-05-21T00:56:06.581Z,12.42
2019-05-21T00:57:06.581Z,12.42
2019-05-21T00:58:06.583Z,12.42
2019-05-21T00:59:06.582Z,12.43
2019-05-21T01:00:06.698Z,12.43
2019-05-21T01:01:06.578Z,12.41
2019-05-21T01:02:06.609Z,12.41
2019-05-21T01:03:06.577Z,12.43
2019-05-21T01:04:06.577Z,12.42
2019-05-21T01:05:06.579Z,12.43
2019-05-21T01:06:06.577Z,12.42
2019-05-21T01:07:06.584Z,12.43
2019-05-21T01:08:06.578Z,12.43
2019-05-21T01:09:06.572Z,12.43
2019-05-21T01:10:06.575Z,12.44
2019-05-21T01:11:06.572Z,12.44
2019-05-21T01:12:06.581Z,12.44
2019-05-21T01:13:06.571Z,12.44
2019-05-21T01:14:06.573Z,12.43
2019-05-21T01:15:06.572Z,12.43
2019-05-21T01:16:06.569Z,12.43
2019-05-21T01:17:06.582Z,12.43
2019-05-21T01:18:06.569Z,12.43
2019-05-21T01:19:06.576Z,12.43
2019-05-21T01:20:06.592Z,12.42
2019-05-21T01:21:06.570Z,12.41
2019-05-21T01:22:06.594Z,12.41
2019-05-21T01:23:06.594Z,12.41
2019-05-21T01:24:06.594Z,12.41
2019-05-21T01:25:06.575Z,12.41
2019-05-21T01:26:06.563Z,12.41
2019-05-21T01:27:06.566Z,12.40
2019-05-21T01:28:06.563Z,12.40
2019-05-21T01:29:06.562Z,12.39
2019-05-21T01:30:06.570Z,12.39
2019-05-21T01:31:06.562Z,12.38
2019-05-21T01:32:06.570Z,12.39
2019-05-21T01:33:06.563Z,12.38
2019-05-21T01:34:06.562Z,12.39
2019-05-21T01:35:16.541Z,12.38
2019-05-21T01:36:06.557Z,12.38
2019-05-21T01:37:06.557Z,12.38
2019-05-21T01:38:06.562Z,12.37
2019-05-21T01:39:06.561Z,12.37
2019-05-21T01:40:06.555Z,12.39
2019-05-21T01:41:06.555Z,12.38
2019-05-21T01:42:06.551Z,12.38
2019-05-21T01:43:06.563Z,12.38
2019-05-21T01:44:06.552Z,12.38
2019-05-21T01:45:06.552Z,12.38
2019-05-21T01:46:06.553Z,12.37
2019-05-21T01:47:06.553Z,12.36
2019-05-21T01:48:06.559Z,12.36
2019-05-21T01:49:06.553Z,12.36
2019-05-21T01:50:06.550Z,12.36
2019-05-21T01:51:06.552Z,12.36
2019-05-21T01:52:06.550Z,12.35
2019-05-21T01:53:06.557Z,12.34
2019-05-21T01:54:06.550Z,12.36
2019-05-21T01:55:06.547Z,12.36
2019-05-21T01:56:06.545Z,12.36
2019-05-21T01:57:06.548Z,12.36
2019-05-21T01:58:06.555Z,12.35
2019-05-21T01:59:06.547Z,12.36
2019-05-21T02:00:06.543Z,12.35
2019-05-21T02:01:06.544Z,12.33
2019-05-21T02:02:06.543Z,12.34
2019-05-21T02:03:06.546Z,12.34
2019-05-21T02:04:06.540Z,12.34
2019-05-21T02:05:06.540Z,12.35
2019-05-21T02:06:06.542Z,12.34
2019-05-21T02:07:06.539Z,12.34
2019-05-21T02:08:06.565Z,12.35
2019-05-21T02:09:06.564Z,12.34
2019-05-21T02:10:06.538Z,12.33
2019-05-21T02:11:06.538Z,12.32
2019-05-21T02:12:06.541Z,12.35
2019-05-21T02:13:06.563Z,12.34
2019-05-21T02:14:06.536Z,12.35
2019-05-21T02:15:06.538Z,12.34
2019-05-21T02:16:06.532Z,12.34
2019-05-21T02:17:06.533Z,12.34
2019-05-21T02:18:06.536Z,12.34
2019-05-21T02:19:06.544Z,12.34
2019-05-21T02:20:06.538Z,12.33
2019-05-21T02:21:06.532Z,12.31
2019-05-21T02:22:06.531Z,12.30
2019-05-21T02:23:06.534Z,12.31
2019-05-21T02:24:06.545Z,12.31
2019-05-21T02:25:06.533Z,12.31
2019-05-21T02:26:06.532Z,12.30
2019-05-21T02:27:06.530Z,12.30
2019-05-21T02:28:06.526Z,12.29
2019-05-21T02:29:06.531Z,12.29
2019-05-21T02:30:07.813Z,12.28
2019-05-21T02:31:06.542Z,12.28
2019-05-21T02:32:06.525Z,12.27
2019-05-21T02:33:06.526Z,12.26
2019-05-21T02:34:06.535Z,12.27
2019-05-21T02:35:06.525Z,12.26
2019-05-21T02:36:06.523Z,12.26
2019-05-21T02:37:06.685Z,12.25
2019-05-21T02:38:06.523Z,12.26
2019-05-21T02:39:06.531Z,12.27
2019-05-21T02:40:06.521Z,12.26
2019-05-21T02:41:06.519Z,12.25
2019-05-21T02:42:06.537Z,12.25
2019-05-21T02:43:06.518Z,12.24
2019-05-21T02:44:06.522Z,12.24
2019-05-21T02:45:06.526Z,12.24
2019-05-21T02:46:06.517Z,12.24
2019-05-21T02:47:06.518Z,12.24
2019-05-21T02:48:06.516Z,12.23
2019-05-21T02:49:06.533Z,12.21
2019-05-21T02:50:06.516Z,12.20
2019-05-21T02:51:06.514Z,12.22
2019-05-21T02:52:06.513Z,12.21
2019-05-21T02:53:06.519Z,12.21
2019-05-21T02:54:06.528Z,12.20
2019-05-21T02:55:06.516Z,12.20
2019-05-21T02:56:06.509Z,12.19
2019-05-21T02:57:06.513Z,12.20
2019-05-21T02:58:06.517Z,12.18
2019-05-21T02:59:06.522Z,12.20
2019-05-21T03:00:06.509Z,12.18
2019-05-21T03:01:06.511Z,12.17
2019-05-21T03:02:06.510Z,12.16
2019-05-21T03:03:06.511Z,12.16
2019-05-21T03:04:06.516Z,12.15
2019-05-21T03:05:06.529Z,12.14
2019-05-21T03:06:13.848Z,12.15
2019-05-21T03:07:06.505Z,12.14
2019-05-21T03:08:06.503Z,12.14
2019-05-21T03:09:06.510Z,12.13
2019-05-21T03:10:06.506Z,12.12
2019-05-21T03:11:06.515Z,12.12
2019-05-21T03:12:06.505Z,12.11
2019-05-21T03:13:06.502Z,12.13
2019-05-21T03:14:06.502Z,12.11
2019-05-21T03:15:06.511Z,12.10
2019-05-21T03:16:06.500Z,12.10
2019-05-21T03:17:06.499Z,12.09
2019-05-21T03:18:06.502Z,12.10
2019-05-21T03:19:06.507Z,12.10
2019-05-21T03:20:06.513Z,12.10
2019-05-21T03:21:06.501Z,12.10
2019-05-21T03:22:06.498Z,12.10
2019-05-21T03:23:06.497Z,12.10
2019-05-21T03:24:06.496Z,12.11
2019-05-21T03:25:06.505Z,12.11
2019-05-21T03:26:06.496Z,12.09
2019-05-21T03:27:06.495Z,12.09
2019-05-21T03:28:06.493Z,12.07
2019-05-21T03:29:06.494Z,12.06
2019-05-21T03:30:06.505Z,12.05
2019-05-21T03:31:06.493Z,12.04
2019-05-21T03:32:06.494Z,12.03
2019-05-21T03:33:06.492Z,12.02
2019-05-21T03:34:06.492Z,12.02
2019-05-21T03:35:06.505Z,12.01
2019-05-21T03:36:06.496Z,12.01
2019-05-21T03:37:06.487Z,12.00
2019-05-21T03:38:06.498Z,12.01
2019-05-21T03:39:06.495Z,12.03
2019-05-21T03:40:06.497Z,12.02
2019-05-21T03:41:06.489Z,12.03
2019-05-21T03:42:06.485Z,12.02
2019-05-21T03:43:06.485Z,12.01
2019-05-21T03:44:06.483Z,12.01
2019-05-21T03:45:07.763Z,12.00
2019-05-21T03:46:06.489Z,12.00
2019-05-21T03:47:06.486Z,11.98
2019-05-21T03:48:06.481Z,11.98
2019-05-21T03:49:06.480Z,11.98
2019-05-21T03:50:06.491Z,11.97
2019-05-21T03:51:06.489Z,11.96
2019-05-21T03:52:06.485Z,11.96
2019-05-21T03:53:06.477Z,11.95
2019-05-21T03:54:06.478Z,11.96
2019-05-21T03:55:06.477Z,11.95
2019-05-21T03:56:06.554Z,11.96
2019-05-21T03:57:06.477Z,11.95
2019-05-21T03:58:06.478Z,11.94
2019-05-21T03:59:06.479Z,11.94
2019-05-21T04:00:06.523Z,11.92
2019-05-21T04:01:06.487Z,11.90
2019-05-21T04:02:06.483Z,11.89
2019-05-21T04:03:06.475Z,11.88
2019-05-21T04:04:06.474Z,11.90
2019-05-21T04:05:06.472Z,11.88
2019-05-21T04:06:06.481Z,11.88
2019-05-21T04:07:06.473Z,11.87
2019-05-21T04:08:06.469Z,11.85
2019-05-21T04:09:06.471Z,11.85
2019-05-21T04:10:06.470Z,11.87
2019-05-21T04:11:06.480Z,11.86
2019-05-21T04:12:06.480Z,11.86
2019-05-21T04:13:06.476Z,11.83
2019-05-21T04:14:06.470Z,11.83
2019-05-21T04:15:06.470Z,11.80
2019-05-21T04:16:06.470Z,11.78
2019-05-21T04:17:06.467Z,11.75
2019-05-21T04:18:06.468Z,11.73
2019-05-21T04:19:06.463Z,11.73
2019-05-21T04:20:06.469Z,11.71
2019-05-21T04:21:06.477Z,11.69
2019-05-21T04:22:06.461Z,11.67
2019-05-21T04:23:06.463Z,11.67
2019-05-21T04:24:08.935Z,11.67
2019-05-21T04:25:06.469Z,11.65
2019-05-21T04:26:06.459Z,11.64
2019-05-21T04:27:06.461Z,11.64
2019-05-21T04:28:06.462Z,11.65
2019-05-21T04:29:06.456Z,11.65
2019-05-21T04:30:06.459Z,11.64
2019-05-21T04:31:06.464Z,11.63
2019-05-21T04:32:06.469Z,11.64
2019-05-21T04:33:06.456Z,11.64
2019-05-21T04:34:06.455Z,11.65
2019-05-21T04:35:06.456Z,11.65
2019-05-21T04:36:06.473Z,11.66
2019-05-21T04:37:10.464Z,11.65
2019-05-21T04:38:06.466Z,11.64
2019-05-21T04:39:06.469Z,11.63
2019-05-21T04:40:06.547Z,11.63
2019-05-21T04:41:06.447Z,11.63
2019-05-21T04:42:06.460Z,11.64
2019-05-21T04:43:06.450Z,11.64
2019-05-21T04:44:06.455Z,11.64
2019-05-21T04:45:06.450Z,11.63
2019-05-21T04:46:06.452Z,11.63
2019-05-21T04:47:06.456Z,11.64
2019-05-21T04:48:06.445Z,11.65
2019-05-21T04:49:06.445Z,11.63
2019-05-21T04:50:06.449Z,11.62
2019-05-21T04:51:06.448Z,11.61
2019-05-21T04:52:06.456Z,11.60
2019-05-21T04:53:06.448Z,11.60
2019-05-21T04:54:06.450Z,11.61
2019-05-21T04:55:06.449Z,11.61
2019-05-21T04:56:06.443Z,11.61
2019-05-21T04:57:06.447Z,11.61
2019-05-21T04:58:06.454Z,11.61
2019-05-21T04:59:06.440Z,11.62
2019-05-21T05:00:06.438Z,11.62
2019-05-21T05:01:06.477Z,11.64
2019-05-21T05:02:06.439Z,11.62
2019-05-21T05:03:06.440Z,11.63
2019-05-21T05:04:06.437Z,11.62
2019-05-21T05:05:06.437Z,11.63
2019-05-21T05:06:06.435Z,11.63
2019-05-21T05:07:06.437Z,11.63
2019-05-21T05:08:06.451Z,11.65
2019-05-21T05:09:06.431Z,11.65
2019-05-21T05:10:06.436Z,11.66
2019-05-21T05:11:06.433Z,11.68
2019-05-21T05:12:06.430Z,11.71
2019-05-21T05:13:06.437Z,11.70
2019-05-21T05:14:06.430Z,11.70
2019-05-21T05:15:06.431Z,11.70
2019-05-21T05:16:06.433Z,11.70
2019-05-21T05:17:06.429Z,11.71
2019-05-21T05:18:06.433Z,11.70
2019-05-21T05:19:06.433Z,11.71
2019-05-21T05:20:06.429Z,11.71
2019-05-21T05:21:06.424Z,11.71
2019-05-21T05:22:06.428Z,11.71
2019-05-21T05:23:06.435Z,11.71
2019-05-21T05:24:06.440Z,11.70
2019-05-21T05:25:06.426Z,11.70
2019-05-21T05:26:06.425Z,11.71
2019-05-21T05:27:06.423Z,11.72
2019-05-21T05:28:06.442Z,11.73
2019-05-21T05:29:06.421Z,11.73
2019-05-21T05:30:06.421Z,11.73
2019-05-21T05:31:06.422Z,11.75
2019-05-21T05:32:06.424Z,11.74
2019-05-21T05:33:06.430Z,11.76
2019-05-21T05:34:06.420Z,11.78
2019-05-21T05:35:06.419Z,11.79
2019-05-21T05:36:06.419Z,11.80
2019-05-21T05:37:06.421Z,11.81
2019-05-21T05:38:06.416Z,11.81
2019-05-21T05:39:06.424Z,11.81
2019-05-21T05:40:06.650Z,11.80
2019-05-21T05:41:06.414Z,11.80
2019-05-21T05:42:06.413Z,11.81
2019-05-21T05:43:06.416Z,11.79
2019-05-21T05:44:06.416Z,11.77
2019-05-21T05:45:06.457Z,11.75
2019-05-21T05:46:06.417Z,11.72
2019-05-21T05:47:06.414Z,11.70
2019-05-21T05:48:06.406Z,11.69
2019-05-21T05:49:06.416Z,11.68
2019-05-21T05:50:06.415Z,11.66
2019-05-21T05:51:06.424Z,11.66
2019-05-21T05:52:06.408Z,11.64
2019-05-21T05:53:06.411Z,11.62
2019-05-21T05:54:07.825Z,11.62
2019-05-21T05:55:06.407Z,11.62
2019-05-21T05:56:06.406Z,11.61
2019-05-21T05:57:06.405Z,11.61
2019-05-21T05:58:06.407Z,11.61
2019-05-21T05:59:06.412Z,11.60
2019-05-21T06:00:06.406Z,11.60
2019-05-21T06:01:06.400Z,11.60
2019-05-21T06:02:06.404Z,11.61
2019-05-21T06:03:06.401Z,11.60
2019-05-21T06:04:06.410Z,11.62
2019-05-21T06:05:06.400Z,11.63
2019-05-21T06:06:06.400Z,11.63
2019-05-21T06:07:06.401Z,11.64
2019-05-21T06:08:06.399Z,11.64
2019-05-21T06:09:06.407Z,11.65
2019-05-21T06:10:06.394Z,11.67
2019-05-21T06:11:06.419Z,11.68
2019-05-21T06:12:06.403Z,11.68
2019-05-21T06:13:06.397Z,11.67
2019-05-21T06:14:06.401Z,11.68
2019-05-21T06:15:06.420Z,11.68
2019-05-21T06:16:06.393Z,11.70
2019-05-21T06:17:06.398Z,11.72
2019-05-21T06:18:06.393Z,11.74
2019-05-21T06:19:06.401Z,11.77
2019-05-21T06:20:06.393Z,11.81
2019-05-21T06:21:06.391Z,11.82
2019-05-21T06:22:06.391Z,11.83
2019-05-21T06:23:06.391Z,11.85
2019-05-21T06:24:06.402Z,11.86
2019-05-21T06:25:06.827Z,11.90
2019-05-21T06:26:06.389Z,11.92
2019-05-21T06:27:06.389Z,11.93
2019-05-21T06:28:06.389Z,11.94
2019-05-21T06:29:06.404Z,11.94
2019-05-21T06:30:06.389Z,11.96
2019-05-21T06:31:06.388Z,12.00
2019-05-21T06:32:06.385Z,12.03
2019-05-21T06:33:06.385Z,12.04
2019-05-21T06:34:06.390Z,12.07
2019-05-21T06:35:06.386Z,12.10
2019-05-21T06:36:06.387Z,12.19
2019-05-21T06:37:06.406Z,12.26
2019-05-21T06:38:17.277Z,12.35
2019-05-21T06:39:06.396Z,12.40
2019-05-21T06:40:06.381Z,12.46
2019-05-21T06:41:06.388Z,12.53
2019-05-21T06:42:06.377Z,12.61
2019-05-21T06:43:06.381Z,12.63
2019-05-21T06:44:06.385Z,12.64
2019-05-21T06:45:06.464Z,12.63
2019-05-21T06:46:06.378Z,12.59
2019-05-21T06:47:06.380Z,12.57
2019-05-21T06:48:06.379Z,12.53
2019-05-21T06:49:06.376Z,12.42
2019-05-21T06:50:06.384Z,12.36
2019-05-21T06:51:06.380Z,12.34
2019-05-21T06:52:06.373Z,12.32
2019-05-21T06:53:06.379Z,12.33
2019-05-21T06:54:06.384Z,12.36
2019-05-21T06:55:06.380Z,12.40
2019-05-21T06:56:07.474Z,12.43
2019-05-21T06:57:06.374Z,12.48
2019-05-21T06:58:06.371Z,12.53
2019-05-21T06:59:06.372Z,12.54
2019-05-21T07:00:06.371Z,12.53
2019-05-21T07:01:06.371Z,12.58
2019-05-21T07:02:06.382Z,12.61
2019-05-21T07:03:06.370Z,12.60
2019-05-21T07:04:06.371Z,12.60
2019-05-21T07:05:06.375Z,12.57
2019-05-21T07:06:06.369Z,12.58
2019-05-21T07:07:06.366Z,12.60
2019-05-21T07:08:06.364Z,12.64
2019-05-21T07:09:06.363Z,12.67
2019-05-21T07:10:06.367Z,12.70
2019-05-21T07:11:06.364Z,12.74
2019-05-21T07:12:06.364Z,12.74
2019-05-21T07:13:06.363Z,12.78
2019-05-21T07:14:06.364Z,12.80
2019-05-21T07:15:06.370Z,12.80
2019-05-21T07:16:06.359Z,12.79
2019-05-21T07:17:06.360Z,12.77
2019-05-21T07:18:06.363Z,12.76
2019-05-21T07:19:06.356Z,12.77
2019-05-21T07:20:06.365Z,12.77
2019-05-21T07:21:06.367Z,12.73
2019-05-21T07:22:12.483Z,12.67
2019-05-21T07:23:06.472Z,12.66
2019-05-21T07:24:06.354Z,12.66
2019-05-21T07:25:06.390Z,12.63
2019-05-21T07:26:06.354Z,12.67
2019-05-21T07:27:06.354Z,12.70
2019-05-21T07:28:06.353Z,12.69
2019-05-21T07:29:06.445Z,12.66
2019-05-21T07:30:06.361Z,12.62
2019-05-21T07:31:06.385Z,12.65
2019-05-21T07:32:06.350Z,12.67
2019-05-21T07:33:06.862Z,12.69
2019-05-21T07:34:06.350Z,12.73
2019-05-21T07:35:06.367Z,12.82
2019-05-21T07:36:06.349Z,12.99
2019-05-21T07:37:06.353Z,13.13
2019-05-21T07:38:06.346Z,13.36
2019-05-21T07:39:06.360Z,13.45
2019-05-21T07:40:06.345Z,13.47
2019-05-21T07:41:06.386Z,13.55
2019-05-21T07:42:06.346Z,13.57
2019-05-21T07:43:06.345Z,13.50
2019-05-21T07:44:06.351Z,13.38
2019-05-21T07:45:06.350Z,13.36
2019-05-21T07:46:06.345Z,13.45
2019-05-21T07:47:06.348Z,13.52
2019-05-21T07:48:06.340Z,13.50
2019-05-21T07:49:06.341Z,13.44
2019-05-21T07:50:06.343Z,13.41
2019-05-21T07:51:06.351Z,13.35
2019-05-21T07:52:06.338Z,13.33
2019-05-21T07:53:06.338Z,13.33
2019-05-21T07:54:06.337Z,13.28
2019-05-21T07:55:06.336Z,13.21
2019-05-21T07:56:06.343Z,13.24
2019-05-21T07:57:06.339Z,13.24
2019-05-21T07:58:06.344Z,13.28
2019-05-21T07:59:06.335Z,13.29
2019-05-21T08:00:06.334Z,13.27
2019-05-21T08:01:06.340Z,13.27
2019-05-21T08:02:06.335Z,13.30
2019-05-21T08:03:06.334Z,13.34
2019-05-21T08:04:06.452Z,13.37
2019-05-21T08:05:06.469Z,13.36
2019-05-21T08:06:06.331Z,13.39
2019-05-21T08:07:06.330Z,13.37
2019-05-21T08:08:06.330Z,13.40
2019-05-21T08:09:13.374Z,13.41
2019-05-21T08:10:06.331Z,13.45
2019-05-21T08:11:06.344Z,13.48
2019-05-21T08:12:27.459Z,13.53
2019-05-21T08:13:06.327Z,13.59
2019-05-21T08:14:06.326Z,13.63
2019-05-21T08:15:06.329Z,13.67
2019-05-21T08:16:06.331Z,13.66
2019-05-21T08:17:06.336Z,13.63
2019-05-21T08:18:06.325Z,13.60
2019-05-21T08:19:06.325Z,13.64
2019-05-21T08:20:09.836Z,13.69
2019-05-21T08:21:06.329Z,13.77
2019-05-21T08:22:06.322Z,13.79
2019-05-21T08:23:06.321Z,13.85
2019-05-21T08:24:06.324Z,13.90
2019-05-21T08:25:06.325Z,13.92
2019-05-21T08:26:06.331Z,13.97
2019-05-21T08:27:06.318Z,13.99
2019-05-21T08:28:06.319Z,13.99
2019-05-21T08:29:06.318Z,13.96
2019-05-21T08:30:06.319Z,13.99
2019-05-21T08:31:06.330Z,13.96
2019-05-21T08:32:06.315Z,13.92
2019-05-21T08:33:06.315Z,13.93
2019-05-21T08:34:06.316Z,13.98
2019-05-21T08:35:06.313Z,14.04
2019-05-21T08:36:06.338Z,14.07
2019-05-21T08:37:06.358Z,14.10
2019-05-21T08:38:06.915Z,14.18
2019-05-21T08:39:06.317Z,14.22
2019-05-21T08:40:06.313Z,14.30
2019-05-21T08:41:06.312Z,14.31
2019-05-21T08:42:06.311Z,14.26
2019-05-21T08:43:06.311Z,14.25
2019-05-21T08:44:06.309Z,14.32
2019-05-21T08:45:06.423Z,14.33
2019-05-21T08:46:06.308Z,14.34
2019-05-21T08:47:06.311Z,14.39
2019-05-21T08:48:06.324Z,14.42
2019-05-21T08:49:06.315Z,14.44
2019-05-21T08:50:06.321Z,14.43
2019-05-21T08:51:06.305Z,14.34
2019-05-21T08:52:06.305Z,14.33
2019-05-21T08:53:06.304Z,14.30
2019-05-21T08:54:06.313Z,14.27
2019-05-21T08:55:06.301Z,14.28
2019-05-21T08:56:06.302Z,14.32
2019-05-21T08:57:06.309Z,14.36
2019-05-21T08:58:07.788Z,14.43
2019-05-21T08:59:06.338Z,14.50
2019-05-21T09:00:06.299Z,14.54
2019-05-21T09:01:06.299Z,14.60
2019-05-21T09:02:06.302Z,14.70
2019-05-21T09:03:06.299Z,14.81
2019-05-21T09:04:06.311Z,14.97
2019-05-21T09:05:06.298Z,15.18
2019-05-21T09:06:06.296Z,15.27
2019-05-21T09:07:06.299Z,15.27
2019-05-21T09:08:06.298Z,15.25
2019-05-21T09:09:06.293Z,15.22
2019-05-21T09:10:06.299Z,15.28
2019-05-21T09:11:06.313Z,15.29
2019-05-21T09:12:06.301Z,15.24
2019-05-21T09:13:06.293Z,15.24
2019-05-21T09:14:06.297Z,15.24
2019-05-21T09:15:06.291Z,15.15
2019-05-21T09:16:06.294Z,15.17
2019-05-21T09:17:06.303Z,15.11
2019-05-21T09:18:06.293Z,15.16
2019-05-21T09:19:06.287Z,15.22
2019-05-21T09:20:06.335Z,15.24
2019-05-21T09:21:06.288Z,15.20
2019-05-21T09:22:06.290Z,15.20
2019-05-21T09:23:06.289Z,15.16
2019-05-21T09:24:06.285Z,15.17
2019-05-21T09:25:06.424Z,15.16
2019-05-21T09:26:06.290Z,15.11
2019-05-21T09:27:06.294Z,14.92
2019-05-21T09:28:06.283Z,14.80
2019-05-21T09:29:06.284Z,14.66
2019-05-21T09:30:06.283Z,14.62
2019-05-21T09:31:06.284Z,14.63
2019-05-21T09:32:06.291Z,14.58
2019-05-21T09:33:06.281Z,14.51
2019-05-21T09:34:06.280Z,14.51
2019-05-21T09:35:06.277Z,14.50
2019-05-21T09:36:06.286Z,14.46
2019-05-21T09:37:18.460Z,14.44
2019-05-21T09:38:06.279Z,14.42
2019-05-21T09:39:06.278Z,14.42
2019-05-21T09:40:06.277Z,14.42
2019-05-21T09:41:06.276Z,14.41
2019-05-21T09:42:06.278Z,14.34
2019-05-21T09:43:06.283Z,14.32
2019-05-21T09:44:06.276Z,14.32
2019-05-21T09:45:06.320Z,14.31
2019-05-21T09:46:06.278Z,14.31
2019-05-21T09:47:06.281Z,14.31
2019-05-21T09:48:06.275Z,14.34
2019-05-21T09:49:06.270Z,14.41
2019-05-21T09:50:06.356Z,14.50
2019-05-21T09:51:06.298Z,14.59
2019-05-21T09:52:06.271Z,14.67
2019-05-21T09:53:06.289Z,14.74
2019-05-21T09:54:06.268Z,14.86
2019-05-21T09:55:06.275Z,14.97
2019-05-21T09:56:06.276Z,15.03
2019-05-21T09:57:06.273Z,15.12
2019-05-21T09:58:06.278Z,15.12
2019-05-21T09:59:06.265Z,15.02
2019-05-21T10:00:06.261Z,14.94
2019-05-21T10:01:06.265Z,14.91
2019-05-21T10:02:06.341Z,14.88
2019-05-21T10:03:06.266Z,14.82
2019-05-21T10:04:06.264Z,14.81
2019-05-21T10:05:06.330Z,14.82
2019-05-21T10:06:06.262Z,14.84
2019-05-21T10:07:06.261Z,14.92
2019-05-21T10:08:06.273Z,14.98
2019-05-21T10:09:06.261Z,15.13
2019-05-21T10:10:06.260Z,15.24
2019-05-21T10:11:06.261Z,15.38
2019-05-21T10:12:06.256Z,15.58
2019-05-21T10:13:06.265Z,15.64
2019-05-21T10:14:06.330Z,15.62
2019-05-21T10:15:06.256Z,15.76
2019-05-21T10:16:06.258Z,15.83
2019-05-21T10:17:06.267Z,15.81
2019-05-21T10:18:06.269Z,15.90
2019-05-21T10:19:06.255Z,16.02
2019-05-21T10:20:06.253Z,16.09
2019-05-21T10:21:06.256Z,16.20
2019-05-21T10:22:06.402Z,16.20
2019-05-21T10:23:06.255Z,16.12
2019-05-21T10:24:06.260Z,15.93
2019-05-21T10:25:06.254Z,15.73
2019-05-21T10:26:06.244Z,15.67
2019-05-21T10:27:06.249Z,15.59
2019-05-21T10:28:06.249Z,15.55
2019-05-21T10:29:06.253Z,15.50
2019-05-21T10:30:06.258Z,15.55
2019-05-21T10:31:06.249Z,15.69
2019-05-21T10:32:06.252Z,15.79
2019-05-21T10:33:06.247Z,15.81
2019-05-21T10:34:06.258Z,15.78
2019-05-21T10:35:06.471Z,15.72
2019-05-21T10:36:06.247Z,15.76
2019-05-21T10:37:06.261Z,15.72
2019-05-21T10:38:06.249Z,15.75
2019-05-21T10:39:06.247Z,15.77
2019-05-21T10:40:06.244Z,15.78
2019-05-21T10:41:06.245Z,15.75
2019-05-21T10:42:06.247Z,15.76
2019-05-21T10:43:06.245Z,15.77
2019-05-21T10:44:06.254Z,15.72
2019-05-21T10:45:06.266Z,15.70
2019-05-21T10:46:06.240Z,15.65
2019-05-21T10:47:06.240Z,15.62
2019-05-21T10:48:06.244Z,15.51
2019-05-21T10:49:06.251Z,15.57
2019-05-21T10:50:06.254Z,15.58
2019-05-21T10:51:06.237Z,15.52
2019-05-21T10:52:06.235Z,15.40
2019-05-21T10:53:06.233Z,15.23
2019-05-21T10:54:06.252Z,15.10
2019-05-21T10:55:06.252Z,15.06
2019-05-21T10:56:06.234Z,15.02
2019-05-21T10:57:06.232Z,15.04
2019-05-21T10:58:06.234Z,15.00
2019-05-21T10:59:06.238Z,14.90
2019-05-21T11:00:06.233Z,14.88
2019-05-21T11:01:06.230Z,14.88
2019-05-21T11:02:06.240Z,14.91
2019-05-21T11:03:06.238Z,14.91
2019-05-21T11:04:06.245Z,14.97
2019-05-21T11:05:06.287Z,15.13
2019-05-21T11:06:10.027Z,15.32
2019-05-21T11:07:06.233Z,15.38
2019-05-21T11:08:23.699Z,15.46
2019-05-21T11:09:06.225Z,15.52
2019-05-21T11:10:07.339Z,15.54
2019-05-21T11:11:06.238Z,15.62
2019-05-21T11:12:06.224Z,15.80
2019-05-21T11:13:06.223Z,16.00
2019-05-21T11:14:06.467Z,16.17
2019-05-21T11:15:06.237Z,16.21
2019-05-21T11:16:06.255Z,16.29
2019-05-21T11:17:06.238Z,16.50
2019-05-21T11:18:11.460Z,16.71
2019-05-21T11:19:06.388Z,16.88
2019-05-21T11:20:06.224Z,16.85
2019-05-21T11:21:06.222Z,16.68
2019-05-21T11:22:06.217Z,16.47
2019-05-21T11:23:06.228Z,16.23
2019-05-21T11:24:06.296Z,15.97
2019-05-21T11:25:06.224Z,15.69
2019-05-21T11:26:06.216Z,15.54
2019-05-21T11:27:06.233Z,15.49
2019-05-21T11:28:06.523Z,15.40
2019-05-21T11:29:06.214Z,15.32
2019-05-21T11:30:06.229Z,15.30
2019-05-21T11:31:06.216Z,15.20
2019-05-21T11:32:06.215Z,15.13
2019-05-21T11:33:06.218Z,15.06
2019-05-21T11:34:06.215Z,15.05
2019-05-21T11:35:06.215Z,15.02
2019-05-21T11:36:06.215Z,15.02
2019-05-21T11:37:06.216Z,14.97
2019-05-21T11:38:06.211Z,14.94
2019-05-21T11:39:06.209Z,14.92
2019-05-21T11:40:08.561Z,14.94
2019-05-21T11:41:06.243Z,14.99
2019-05-21T11:42:06.215Z,15.04
2019-05-21T11:43:06.211Z,15.04
2019-05-21T11:44:06.205Z,15.07
2019-05-21T11:45:06.210Z,15.07
2019-05-21T11:46:06.208Z,15.01
2019-05-21T11:47:06.214Z,14.98
2019-05-21T11:48:06.217Z,14.95
2019-05-21T11:49:06.209Z,14.92
2019-05-21T11:50:06.208Z,14.90
2019-05-21T11:51:06.222Z,14.90
2019-05-21T11:52:06.204Z,14.90
2019-05-21T11:53:06.220Z,14.89
2019-05-21T11:54:06.202Z,14.86
2019-05-21T11:55:06.201Z,14.79
2019-05-21T11:56:06.207Z,14.71
2019-05-21T11:57:06.204Z,14.67
2019-05-21T11:58:06.206Z,14.72
2019-05-21T11:59:06.200Z,14.72
2019-05-21T12:00:06.201Z,14.76
2019-05-21T12:01:06.208Z,14.82
2019-05-21T12:02:06.196Z,14.88
2019-05-21T12:03:06.202Z,14.88
2019-05-21T12:04:06.196Z,14.84
2019-05-21T12:05:06.196Z,14.84
2019-05-21T12:06:06.213Z,14.84
2019-05-21T12:07:06.196Z,14.88
2019-05-21T12:08:06.191Z,14.87
2019-05-21T12:09:06.194Z,14.93
2019-05-21T12:10:06.193Z,15.01
2019-05-21T12:11:06.206Z,15.09
2019-05-21T12:12:06.191Z,15.22
2019-05-21T12:13:06.192Z,15.33
2019-05-21T12:14:06.196Z,15.43
2019-05-21T12:15:06.189Z,15.50
2019-05-21T12:16:06.199Z,15.63
2019-05-21T12:17:06.189Z,15.75
2019-05-21T12:18:06.190Z,15.90
2019-05-21T12:19:08.102Z,16.14
2019-05-21T12:20:06.248Z,16.25
2019-05-21T12:21:06.198Z,16.44
2019-05-21T12:22:06.199Z,16.52
2019-05-21T12:23:06.196Z,16.67
2019-05-21T12:24:06.232Z,16.73
2019-05-21T12:25:06.183Z,16.69
2019-05-21T12:26:06.206Z,16.73
2019-05-21T12:27:06.183Z,16.94
2019-05-21T12:28:06.185Z,16.99
2019-05-21T12:29:06.180Z,17.08
2019-05-21T12:30:06.191Z,16.99
2019-05-21T12:31:06.185Z,16.90
2019-05-21T12:32:06.184Z,16.87
2019-05-21T12:33:06.226Z,17.02
2019-05-21T12:34:06.236Z,17.23
2019-05-21T12:35:06.182Z,17.20
2019-05-21T12:36:06.179Z,17.00
2019-05-21T12:37:06.181Z,17.08
2019-05-21T12:38:06.189Z,17.22
2019-05-21T12:39:14.234Z,17.24
2019-05-21T12:40:06.175Z,17.27
2019-05-21T12:41:06.174Z,17.06
2019-05-21T12:42:06.245Z,16.86
2019-05-21T12:43:06.177Z,16.62
2019-05-21T12:44:06.174Z,16.48
2019-05-21T12:45:06.188Z,16.58
2019-05-21T12:46:06.172Z,16.92
2019-05-21T12:47:09.630Z,17.09
2019-05-21T12:48:06.173Z,17.19
2019-05-21T12:49:06.173Z,17.24
2019-05-21T12:50:06.177Z,17.19
2019-05-21T12:51:06.175Z,16.97
2019-05-21T12:52:06.171Z,16.63